Time;durP1;ratioP1;P1;durP2;ratioP2;P2;SDS_P1;SDS_P2;PMS_P1;PMS_P2;Temp;Humidity;BMP_temperature;BMP_pressure;BME280_temperature;BME280_humidity;BME280_pressure;Samples;Min_cycle;Max_cycle;Signal;HPM_P1;HPM_P2
2022/03/11 00:01:16;;;;;;;8.07;5.63;;;2.60;40.90;;;;;;5071701;28;20659;-58
2022/03/11 00:03:42;;;;;;;8.57;5.50;;;2.60;40.70;;;;;;5071627;28;20190;-57
2022/03/11 00:06:07;;;;;;;7.77;5.20;;;2.50;40.40;;;;;;5071371;28;20454;-56
2022/03/11 00:08:33;;;;;;;8.00;5.53;;;2.50;40.40;;;;;;5070257;28;20231;-55
2022/03/11 00:10:58;;;;;;;9.03;5.10;;;2.50;40.50;;;;;;5071393;28;20265;-58
2022/03/11 00:13:24;;;;;;;8.03;5.20;;;2.40;40.60;;;;;;5074309;28;20194;-60
2022/03/11 00:15:50;;;;;;;6.47;4.93;;;2.30;40.70;;;;;;5074931;28;20186;-58
2022/03/11 00:18:16;;;;;;;6.03;4.53;;;2.30;40.80;;;;;;5075295;28;20543;-58
2022/03/11 00:20:42;;;;;;;8.17;4.97;;;2.30;40.90;;;;;;5075118;28;20251;-58
2022/03/11 00:23:07;;;;;;;7.17;5.13;;;2.30;40.90;;;;;;5074962;28;20697;-59
2022/03/11 00:25:34;;;;;;;5.53;4.57;;;2.30;40.80;;;;;;5074282;28;20170;-59
2022/03/11 00:27:59;;;;;;;6.70;5.00;;;2.30;41.00;;;;;;5074731;28;20209;-59
2022/03/11 00:30:26;;;;;;;7.83;4.97;;;2.20;41.10;;;;;;5075347;28;20412;-55
2022/03/11 00:32:52;;;;;;;8.00;5.40;;;2.20;41.00;;;;;;5074962;28;20192;-58
2022/03/11 00:35:19;;;;;;;9.27;5.17;;;2.20;40.90;;;;;;5074852;28;20937;-58
2022/03/11 00:37:44;;;;;;;7.23;5.20;;;2.20;40.90;;;;;;5074604;28;20173;-57
2022/03/11 00:40:12;;;;;;;11.07;7.83;;;2.20;41.00;;;;;;5074829;28;20397;-58
2022/03/11 00:42:38;;;;;;;8.47;5.43;;;2.20;41.20;;;;;;5074706;28;20856;-58
2022/03/11 00:45:04;;;;;;;5.97;4.80;;;2.20;41.30;;;;;;5056691;28;20460;-57
2022/03/11 00:47:29;;;;;;;6.17;4.77;;;2.20;41.30;;;;;;5074486;28;20171;-58
2022/03/11 00:49:55;;;;;;;5.60;4.70;;;2.20;41.50;;;;;;5074686;28;20777;-58
2022/03/11 00:52:20;;;;;;;11.47;5.00;;;2.20;41.60;;;;;;5074589;28;20170;-58
2022/03/11 00:54:46;;;;;;;7.00;5.10;;;2.20;41.60;;;;;;5074350;28;20691;-59
2022/03/11 00:57:11;;;;;;;7.07;4.70;;;2.60;42.20;;;;;;5074401;28;20174;-58
2022/03/11 00:59:37;;;;;;;6.63;5.17;;;2.10;42.20;;;;;;5074393;28;20228;-59
2022/03/11 01:02:03;;;;;;;7.80;5.27;;;2.10;42.40;;;;;;5074791;28;20287;-59
2022/03/11 01:04:28;;;;;;;7.43;5.20;;;2.00;42.50;;;;;;5074274;28;20198;-59
2022/03/11 01:06:54;;;;;;;6.63;5.03;;;2.00;42.80;;;;;;5074069;28;20178;-57
2022/03/11 01:09:19;;;;;;;8.80;5.37;;;2.00;43.10;;;;;;5074089;28;20175;-58
2022/03/11 01:11:45;;;;;;;6.87;5.07;;;2.00;43.30;;;;;;5074109;28;20524;-59
2022/03/11 01:14:10;;;;;;;8.20;5.30;;;2.00;43.40;;;;;;5074163;28;20197;-58
2022/03/11 01:16:36;;;;;;;7.03;5.17;;;2.00;43.60;;;;;;5074001;28;20266;-59
2022/03/11 01:19:02;;;;;;;7.00;5.20;;;2.10;43.60;;;;;;5074215;28;20201;-58
2022/03/11 01:21:27;;;;;;;8.70;5.07;;;2.10;43.70;;;;;;5074337;28;20238;-58
2022/03/11 01:23:53;;;;;;;6.47;4.87;;;2.10;43.90;;;;;;5072035;28;20257;-58
2022/03/11 01:26:19;;;;;;;7.10;5.33;;;2.10;43.90;;;;;;5073828;28;20198;-58
2022/03/11 01:28:44;;;;;;;7.10;5.10;;;2.00;44.00;;;;;;5074059;28;20206;-56
2022/03/11 01:31:14;;;;;;;7.93;5.20;;;2.00;44.30;;;;;;5073851;28;20721;-56
2022/03/11 01:33:40;;;;;;;10.60;5.53;;;2.00;44.90;;;;;;5073844;28;20201;-59
2022/03/11 01:36:10;;;;;;;8.37;4.90;;;2.00;44.30;;;;;;5073464;28;20412;-59
2022/03/11 01:38:36;;;;;;;7.70;5.30;;;2.00;44.30;;;;;;5073630;28;20457;-61
2022/03/11 01:41:02;;;;;;;6.97;5.47;;;2.00;44.50;;;;;;5073298;28;20456;-59
2022/03/11 01:43:28;;;;;;;7.90;5.20;;;2.10;44.50;;;;;;5073321;28;20442;-59
2022/03/11 01:45:54;;;;;;;10.50;5.43;;;2.00;44.80;;;;;;5073295;28;20400;-56
2022/03/11 01:48:20;;;;;;;9.53;5.20;;;2.00;45.00;;;;;;5073501;28;20170;-59
2022/03/11 01:50:46;;;;;;;7.03;4.83;;;2.00;45.20;;;;;;5073490;28;20416;-54
2022/03/11 01:53:13;;;;;;;10.90;5.70;;;2.00;45.40;;;;;;5073246;28;20253;-57
2022/03/11 01:55:39;;;;;;;8.23;5.50;;;2.00;45.40;;;;;;5072805;28;20591;-59
2022/03/11 01:58:06;;;;;;;7.37;5.40;;;1.90;45.40;;;;;;5073381;28;20435;-60
2022/03/11 02:00:35;;;;;;;10.00;5.90;;;2.00;45.70;;;;;;5073099;28;20404;-58
2022/03/11 02:03:01;;;;;;;7.20;5.37;;;2.00;45.80;;;;;;5073214;28;20447;-58
2022/03/11 02:05:28;;;;;;;7.70;5.77;;;2.00;45.60;;;;;;5073149;28;20435;-56
2022/03/11 02:07:53;;;;;;;7.43;6.10;;;1.90;45.70;;;;;;5072771;28;20405;-59
2022/03/11 02:10:19;;;;;;;8.20;5.60;;;1.90;45.80;;;;;;5072941;28;20475;-54
2022/03/11 02:12:44;;;;;;;8.63;5.60;;;1.90;45.90;;;;;;5072962;28;20227;-57
2022/03/11 02:15:10;;;;;;;10.77;5.90;;;2.00;45.90;;;;;;5072999;28;20225;-60
2022/03/11 02:17:36;;;;;;;7.17;5.37;;;2.00;46.10;;;;;;5072681;28;20173;-58
2022/03/11 02:20:03;;;;;;;9.60;5.57;;;1.90;46.20;;;;;;5073035;28;20170;-54
2022/03/11 02:22:34;;;;;;;7.90;5.80;;;1.90;46.40;;;;;;5072892;28;20600;-54
2022/03/11 02:25:00;;;;;;;8.63;5.93;;;1.90;46.40;;;;;;5072972;28;20952;-55
2022/03/11 02:27:26;;;;;;;7.53;5.93;;;1.90;46.40;;;;;;5072440;28;20416;-55
2022/03/11 02:29:51;;;;;;;7.67;5.97;;;1.90;46.60;;;;;;5072947;28;20182;-55
2022/03/11 02:32:16;;;;;;;8.30;5.97;;;2.00;46.50;;;;;;5072867;28;20781;-55
2022/03/11 02:34:42;;;;;;;7.70;5.80;;;2.00;46.50;;;;;;5072449;28;20198;-58
2022/03/11 02:37:11;;;;;;;9.43;6.67;;;2.10;46.50;;;;;;5072279;28;20295;-53
2022/03/11 02:39:36;;;;;;;8.67;6.20;;;2.10;46.70;;;;;;5072688;28;20265;-56
2022/03/11 02:42:04;;;;;;;10.40;6.57;;;2.10;46.80;;;;;;5072511;28;20915;-55
2022/03/11 02:44:31;;;;;;;8.10;6.13;;;2.00;46.90;;;;;;5072360;28;20198;-58
2022/03/11 02:46:59;;;;;;;9.93;6.17;;;1.90;47.00;;;;;;5072199;28;20412;-57
2022/03/11 02:49:26;;;;;;;12.40;6.57;;;1.90;47.10;;;;;;5072659;28;20405;-55
2022/03/11 02:51:52;;;;;;;7.20;5.90;;;1.90;47.20;;;;;;5072491;28;20850;-58
2022/03/11 02:54:18;;;;;;;8.47;5.93;;;2.00;47.30;;;;;;5072399;28;20453;-56
2022/03/11 02:56:43;;;;;;;7.80;6.13;;;1.90;47.20;;;;;;5072077;28;20174;-54
2022/03/11 02:59:09;;;;;;;10.03;6.07;;;2.00;47.50;;;;;;5072368;28;20175;-58
2022/03/11 03:01:34;;;;;;;10.73;6.80;;;1.90;47.50;;;;;;5072327;28;20201;-55
2022/03/11 03:04:00;;;;;;;8.07;6.37;;;2.00;47.70;;;;;;5072206;28;20610;-59
2022/03/11 03:06:26;;;;;;;9.50;6.70;;;1.90;47.60;;;;;;5071760;28;20228;-61
2022/03/11 03:08:51;;;;;;;9.23;5.90;;;1.90;47.60;;;;;;5072216;28;20167;-57
2022/03/11 03:11:17;;;;;;;9.03;6.47;;;1.90;47.60;;;;;;5072156;28;20950;-55
2022/03/11 03:13:42;;;;;;;10.23;6.30;;;2.00;47.80;;;;;;5072420;28;20202;-60
2022/03/11 03:16:08;;;;;;;8.47;5.87;;;2.00;47.90;;;;;;5071969;28;20177;-59
2022/03/11 03:18:33;;;;;;;7.40;5.87;;;2.00;47.80;;;;;;5072023;28;20171;-54
2022/03/11 03:20:59;;;;;;;10.53;5.93;;;2.00;47.90;;;;;;5071871;28;20190;-58
2022/03/11 03:23:26;;;;;;;11.10;6.20;;;2.10;48.10;;;;;;5071904;28;20187;-58
2022/03/11 03:25:53;;;;;;;9.20;6.53;;;2.10;48.10;;;;;;5071769;28;20166;-56
2022/03/11 03:28:19;;;;;;;9.60;6.70;;;2.10;48.00;;;;;;5071816;28;20405;-58
2022/03/11 03:30:44;;;;;;;8.53;6.63;;;2.00;48.20;;;;;;5072188;28;20462;-56
2022/03/11 03:33:10;;;;;;;8.50;6.20;;;1.90;48.40;;;;;;5072009;28;20760;-58
2022/03/11 03:35:36;;;;;;;8.50;6.20;;;1.80;48.50;;;;;;5071667;28;20170;-58
2022/03/11 03:38:01;;;;;;;11.60;7.33;;;1.90;48.90;;;;;;5071808;28;20253;-61
2022/03/11 03:40:27;;;;;;;9.13;6.73;;;1.90;48.70;;;;;;5071597;28;20170;-58
2022/03/11 03:42:52;;;;;;;10.20;6.73;;;1.90;48.50;;;;;;5072073;28;20177;-57
2022/03/11 03:45:18;;;;;;;10.13;6.80;;;2.00;48.50;;;;;;5071624;28;20239;-59
2022/03/11 03:47:43;;;;;;;8.60;6.40;;;1.90;48.40;;;;;;5073417;28;20162;-57
2022/03/11 03:50:10;;;;;;;8.67;6.40;;;1.90;48.70;;;;;;5075762;28;20216;-59
2022/03/11 03:52:35;;;;;;;10.17;7.13;;;1.90;48.80;;;;;;5075797;28;20584;-59
2022/03/11 03:55:01;;;;;;;9.70;7.33;;;2.00;48.70;;;;;;5075679;28;20543;-60
2022/03/11 03:57:27;;;;;;;9.33;6.47;;;2.00;48.50;;;;;;5075843;28;20253;-60
2022/03/11 03:59:53;;;;;;;9.50;7.17;;;2.00;48.40;;;;;;5076595;28;20178;-59
2022/03/11 04:02:19;;;;;;;9.33;6.97;;;2.10;48.50;;;;;;5075907;28;20521;-56
2022/03/11 04:04:44;;;;;;;9.87;6.47;;;2.10;48.50;;;;;;5075430;28;20182;-59
2022/03/11 04:07:11;;;;;;;9.77;7.17;;;2.10;48.60;;;;;;5073853;28;20512;-57
2022/03/11 04:09:36;;;;;;;9.77;6.90;;;2.10;48.70;;;;;;5075521;28;20163;-58
2022/03/11 04:12:02;;;;;;;9.50;7.37;;;2.10;48.60;;;;;;5075290;28;20478;-59
2022/03/11 04:14:28;;;;;;;11.23;7.23;;;2.10;48.60;;;;;;5075325;28;20241;-60
2022/03/11 04:16:53;;;;;;;9.43;6.40;;;2.10;48.60;;;;;;5075044;28;20166;-60
2022/03/11 04:19:19;;;;;;;8.90;7.10;;;2.10;48.60;;;;;;5075056;28;20707;-59
2022/03/11 04:21:44;;;;;;;8.93;7.13;;;2.00;48.60;;;;;;5075158;28;20225;-59
2022/03/11 04:24:14;;;;;;;9.53;7.10;;;2.00;48.60;;;;;;5074952;28;20190;-58
2022/03/11 04:26:44;;;;;;;10.93;7.50;;;2.00;48.70;;;;;;5074786;28;20253;-58
2022/03/11 04:29:10;;;;;;;9.73;7.20;;;2.00;48.80;;;;;;5074831;28;20401;-56
2022/03/11 04:31:36;;;;;;;9.40;6.87;;;2.00;48.90;;;;;;5075170;28;20401;-58
2022/03/11 04:34:02;;;;;;;11.03;7.27;;;2.00;48.70;;;;;;5074635;28;20941;-58
2022/03/11 04:36:29;;;;;;;10.23;7.63;;;2.00;48.60;;;;;;5074757;28;20411;-58
2022/03/11 04:38:55;;;;;;;9.50;6.90;;;2.00;48.50;;;;;;5074676;28;20166;-55
2022/03/11 04:41:20;;;;;;;9.23;6.83;;;2.10;48.70;;;;;;5074691;28;20456;-58
2022/03/11 04:43:46;;;;;;;9.63;7.10;;;2.00;48.40;;;;;;5074532;28;20444;-59
2022/03/11 04:46:12;;;;;;;9.47;6.97;;;2.10;48.60;;;;;;5074365;28;20236;-61
2022/03/11 04:48:40;;;;;;;9.10;7.10;;;2.10;48.40;;;;;;5074654;28;20436;-58
2022/03/11 04:51:05;;;;;;;9.93;6.93;;;2.10;48.30;;;;;;5158130;22;21375;-53
2022/03/11 04:53:31;;;;;;;8.43;6.53;;;2.00;48.20;;;;;;5028097;28;20435;-53
2022/03/11 04:55:56;;;;;;;8.70;6.97;;;2.00;48.30;;;;;;5015363;28;20311;-54
2022/03/11 04:58:22;;;;;;;9.40;6.90;;;2.00;48.10;;;;;;5022704;28;20230;-52
2022/03/11 05:00:47;;;;;;;11.60;7.27;;;2.00;47.90;;;;;;5016616;28;20215;-49
2022/03/11 05:03:13;;;;;;;8.27;6.30;;;1.90;47.80;;;;;;5016759;28;20180;-55
2022/03/11 05:05:39;;;;;;;11.83;7.73;;;1.90;47.90;;;;;;5014152;28;20230;-53
2022/03/11 05:08:05;;;;;;;12.00;8.27;;;1.90;48.00;;;;;;5014391;28;20311;-52
2022/03/11 05:10:30;;;;;;;11.63;9.20;;;1.90;48.00;;;;;;5015351;28;20181;-49
2022/03/11 05:12:56;;;;;;;11.00;8.77;;;1.90;47.80;;;;;;5014298;28;20415;-57
2022/03/11 05:15:24;;;;;;;15.87;13.13;;;1.90;47.90;;;;;;5014298;28;20184;-55
2022/03/11 05:17:50;;;;;;;13.80;11.07;;;1.80;47.50;;;;;;5013772;28;20168;-55
2022/03/11 05:20:16;;;;;;;18.90;12.33;;;1.80;47.50;;;;;;5014151;28;20897;-55
2022/03/11 05:22:42;;;;;;;9.03;6.60;;;1.80;47.20;;;;;;5013849;28;20549;-54
2022/03/11 05:25:09;;;;;;;9.07;6.60;;;1.80;46.80;;;;;;5014124;28;20192;-53
2022/03/11 05:27:34;;;;;;;8.77;6.53;;;1.90;46.80;;;;;;5014101;28;20184;-55
2022/03/11 05:30:00;;;;;;;7.43;6.20;;;1.90;46.40;;;;;;5013904;28;20426;-58
2022/03/11 05:32:25;;;;;;;7.60;5.97;;;1.90;46.40;;;;;;5013701;28;20409;-54
2022/03/11 05:34:51;;;;;;;10.43;6.40;;;1.90;45.90;;;;;;5014003;28;20694;-52
2022/03/11 05:37:16;;;;;;;7.67;5.83;;;1.90;45.80;;;;;;5013545;28;20600;-54
2022/03/11 05:39:42;;;;;;;8.07;6.23;;;1.80;45.70;;;;;;5012603;28;20287;-51
2022/03/11 05:42:08;;;;;;;8.27;5.63;;;1.70;45.60;;;;;;5013605;28;20258;-55
2022/03/11 05:44:34;;;;;;;11.23;6.77;;;1.70;45.70;;;;;;5013764;28;20169;-53
2022/03/11 05:47:00;;;;;;;8.33;6.20;;;1.70;45.90;;;;;;5012942;28;20176;-52
2022/03/11 05:49:25;;;;;;;9.47;6.37;;;1.70;45.80;;;;;;5013768;28;20442;-56
2022/03/11 05:51:51;;;;;;;9.00;6.27;;;1.70;45.80;;;;;;5013413;28;20621;-54
2022/03/11 05:54:17;;;;;;;9.37;6.90;;;1.80;45.60;;;;;;5013261;28;20661;-54
2022/03/11 05:56:43;;;;;;;10.10;6.43;;;1.90;45.50;;;;;;5013170;28;20446;-52
2022/03/11 05:59:08;;;;;;;7.53;6.10;;;1.90;45.50;;;;;;5012122;28;20172;-52
2022/03/11 06:01:35;;;;;;;10.17;6.30;;;1.90;45.40;;;;;;5020622;28;20196;-55
2022/03/11 06:04:02;;;;;;;8.27;6.20;;;1.80;45.30;;;;;;5013188;28;20172;-51
2022/03/11 06:06:30;;;;;;;8.20;6.07;;;1.80;45.40;;;;;;5012964;28;20411;-51
2022/03/11 06:08:56;;;;;;;8.10;6.17;;;1.70;45.80;;;;;;5013214;28;20450;-52
2022/03/11 06:11:22;;;;;;;8.83;6.07;;;1.70;45.70;;;;;;5012737;28;20865;-54
2022/03/11 06:13:47;;;;;;;8.63;6.43;;;1.70;45.70;;;;;;5013211;28;20283;-54
2022/03/11 06:16:13;;;;;;;9.10;5.87;;;1.70;46.00;;;;;;5013065;28;20180;-56
2022/03/11 06:18:39;;;;;;;8.50;6.60;;;1.80;46.20;;;;;;5013138;28;20164;-54
2022/03/11 06:21:05;;;;;;;12.17;6.73;;;1.90;45.70;;;;;;5012857;28;20805;-52
2022/03/11 06:23:31;;;;;;;9.43;6.83;;;2.10;45.20;;;;;;5013222;28;20495;-53
2022/03/11 06:25:57;;;;;;;7.57;6.00;;;2.10;45.30;;;;;;5012716;28;20176;-50
2022/03/11 06:28:23;;;;;;;8.33;6.53;;;2.10;45.30;;;;;;5012797;28;20408;-53
2022/03/11 06:30:49;;;;;;;10.00;6.53;;;2.30;44.50;;;;;;5012815;28;20201;-52
2022/03/11 06:33:15;;;;;;;7.57;6.03;;;2.30;44.50;;;;;;5012603;28;20192;-52
2022/03/11 06:35:41;;;;;;;9.00;6.63;;;2.40;44.60;;;;;;5011192;28;20415;-54
2022/03/11 06:38:06;;;;;;;10.67;6.00;;;2.50;44.70;;;;;;5012043;28;20251;-53
2022/03/11 06:40:32;;;;;;;8.67;6.37;;;2.60;44.00;;;;;;5012488;28;20549;-51
2022/03/11 06:42:57;;;;;;;7.70;5.90;;;2.70;43.80;;;;;;5012749;28;20169;-52
2022/03/11 06:45:23;;;;;;;8.57;6.17;;;2.90;43.50;;;;;;5012471;28;20234;-55
2022/03/11 06:47:49;;;;;;;7.97;5.67;;;3.10;43.70;;;;;;5012369;28;20169;-56
2022/03/11 06:50:16;;;;;;;8.63;6.00;;;3.30;42.80;;;;;;5012569;28;20196;-54
2022/03/11 06:52:42;;;;;;;6.73;5.30;;;3.30;42.10;;;;;;5012308;28;20681;-57
2022/03/11 06:55:09;;;;;;;7.43;5.60;;;3.30;42.00;;;;;;5012627;28;20403;-51
2022/03/11 06:57:34;;;;;;;7.37;5.53;;;3.50;42.00;;;;;;5010688;28;20176;-53
2022/03/11 07:00:00;;;;;;;8.40;6.30;;;3.50;41.10;;;;;;5012730;28;20179;-52
2022/03/11 07:02:26;;;;;;;9.50;5.50;;;3.50;41.10;;;;;;5012325;28;20207;-59
2022/03/11 07:04:52;;;;;;;7.80;5.80;;;3.40;41.20;;;;;;5012347;28;20514;-57
2022/03/11 07:07:17;;;;;;;6.17;5.30;;;3.50;41.30;;;;;;5012044;28;20218;-53
2022/03/11 07:09:43;;;;;;;7.63;5.60;;;3.40;41.20;;;;;;5017619;28;20180;-52
2022/03/11 07:12:09;;;;;;;7.67;5.27;;;3.50;40.30;;;;;;5012267;28;20199;-56
2022/03/11 07:14:36;;;;;;;7.03;5.30;;;3.40;40.50;;;;;;5012312;28;20181;-57
2022/03/11 07:17:06;;;;;;;8.60;5.63;;;3.50;40.40;;;;;;5011821;28;20169;-56
2022/03/11 07:19:32;;;;;;;7.10;5.20;;;3.40;40.40;;;;;;5011391;28;20208;-58
2022/03/11 07:21:59;;;;;;;6.43;5.20;;;3.50;39.90;;;;;;5010622;28;20208;-54
2022/03/11 07:24:25;;;;;;;9.00;5.43;;;3.60;40.20;;;;;;5011872;28;20650;-55
2022/03/11 07:26:51;;;;;;;6.43;5.13;;;3.80;39.70;;;;;;5011699;28;20252;-55
2022/03/11 07:29:16;;;;;;;6.43;4.80;;;3.90;39.10;;;;;;5011843;28;20252;-57
2022/03/11 07:31:42;;;;;;;9.13;5.23;;;3.90;38.70;;;;;;5011850;28;20216;-57
2022/03/11 07:34:08;;;;;;;8.90;4.90;;;3.90;38.60;;;;;;5012084;28;20176;-56
2022/03/11 07:36:34;;;;;;;7.23;5.30;;;4.10;38.80;;;;;;5011802;28;20172;-56
2022/03/11 07:39:03;;;;;;;7.63;5.30;;;4.10;39.00;;;;;;5011886;28;20547;-50
2022/03/11 07:41:29;;;;;;;5.67;4.60;;;4.20;38.10;;;;;;5011596;28;20208;-52
2022/03/11 07:43:55;;;;;;;8.00;5.40;;;4.20;37.30;;;;;;5011930;28;20230;-55
2022/03/11 07:46:21;;;;;;;7.77;5.30;;;4.40;37.40;;;;;;5011615;28;20534;-53
2022/03/11 07:48:47;;;;;;;6.13;4.80;;;4.40;37.10;;;;;;5011567;28;20172;-54
2022/03/11 07:51:12;;;;;;;5.87;4.87;;;4.50;37.10;;;;;;5010928;28;20208;-56
2022/03/11 07:53:38;;;;;;;5.93;4.63;;;4.50;36.90;;;;;;5011708;28;20248;-54
2022/03/11 07:56:06;;;;;;;7.33;4.97;;;4.60;37.10;;;;;;5011550;28;20172;-55
2022/03/11 07:58:31;;;;;;;6.57;5.00;;;4.70;36.00;;;;;;5011813;28;20636;-55
2022/03/11 08:00:57;;;;;;;5.27;4.63;;;4.70;35.80;;;;;;5011564;28;20287;-57
2022/03/11 08:03:22;;;;;;;8.17;5.17;;;4.90;36.10;;;;;;5011837;28;20173;-55
2022/03/11 08:05:49;;;;;;;6.83;5.10;;;5.00;35.80;;;;;;5010221;28;20177;-55
2022/03/11 08:08:14;;;;;;;7.47;4.83;;;5.00;35.80;;;;;;5011543;28;20165;-55
2022/03/11 08:10:40;;;;;;;5.10;4.43;;;5.20;36.30;;;;;;5011315;28;20168;-60
2022/03/11 08:13:06;;;;;;;6.70;4.80;;;5.30;35.70;;;;;;5011612;28;20188;-56
2022/03/11 08:15:33;;;;;;;6.23;5.00;;;5.40;35.90;;;;;;5011316;28;20605;-57
2022/03/11 08:17:59;;;;;;;6.80;4.67;;;5.50;35.40;;;;;;5011674;28;20208;-57
2022/03/11 08:20:25;;;;;;;6.70;5.00;;;5.60;34.60;;;;;;5011669;28;20197;-56
2022/03/11 08:22:50;;;;;;;6.60;4.77;;;5.70;34.80;;;;;;5011417;28;20764;-52
2022/03/11 08:25:17;;;;;;;5.63;4.53;;;5.90;34.60;;;;;;5011464;28;20177;-57
2022/03/11 08:27:43;;;;;;;4.97;4.20;;;5.90;34.00;;;;;;5011242;28;20550;-54
2022/03/11 08:30:10;;;;;;;5.90;4.67;;;5.90;34.20;;;;;;5011488;28;20173;-58
2022/03/11 08:32:36;;;;;;;6.30;4.37;;;6.00;34.20;;;;;;5011345;28;20200;-57
2022/03/11 08:35:03;;;;;;;5.97;4.70;;;6.10;34.50;;;;;;5014920;28;20235;-57
2022/03/11 08:37:28;;;;;;;5.80;4.43;;;6.30;33.90;;;;;;5014659;28;20172;-54
2022/03/11 08:39:54;;;;;;;6.77;4.60;;;6.40;34.00;;;;;;5014921;28;20180;-55
2022/03/11 08:42:20;;;;;;;5.73;4.60;;;6.50;33.60;;;;;;5014965;28;20219;-57
2022/03/11 08:44:45;;;;;;;7.37;4.67;;;6.60;33.60;;;;;;5013912;28;20175;-57
2022/03/11 08:47:12;;;;;;;7.07;4.63;;;6.80;33.30;;;;;;5014770;28;20196;-57
2022/03/11 08:49:38;;;;;;;7.63;4.50;;;7.00;33.40;;;;;;5014763;28;20168;-56
2022/03/11 08:52:04;;;;;;;5.60;4.83;;;7.10;33.00;;;;;;5014533;28;20204;-59
2022/03/11 08:54:29;;;;;;;6.27;4.70;;;7.30;32.90;;;;;;5014796;28;20263;-53
2022/03/11 08:56:55;;;;;;;5.93;4.37;;;7.50;32.90;;;;;;5014460;28;20330;-59
2022/03/11 08:59:21;;;;;;;5.80;4.47;;;7.60;32.70;;;;;;5014698;28;20184;-57
2022/03/11 09:01:48;;;;;;;5.40;4.40;;;7.90;33.20;;;;;;5014544;28;20287;-57
2022/03/11 09:04:14;;;;;;;6.17;4.50;;;8.20;33.00;;;;;;5014992;28;20168;-57
2022/03/11 09:06:39;;;;;;;6.20;4.50;;;8.50;31.70;;;;;;5014338;28;20180;-57
2022/03/11 09:09:05;;;;;;;4.90;4.40;;;8.80;30.90;;;;;;5014398;28;20211;-58
2022/03/11 09:11:34;;;;;;;5.23;4.70;;;8.90;30.80;;;;;;5014262;28;20259;-58
2022/03/11 09:14:00;;;;;;;5.30;4.47;;;9.20;30.80;;;;;;5014455;28;20550;-55
2022/03/11 09:16:26;;;;;;;5.50;4.20;;;9.60;30.80;;;;;;5014147;28;20182;-53
2022/03/11 09:18:51;;;;;;;6.07;4.70;;;9.90;30.20;;;;;;5013148;28;20208;-58
2022/03/11 09:21:17;;;;;;;4.70;4.20;;;10.40;29.50;;;;;;5014039;28;20208;-57
2022/03/11 09:23:43;;;;;;;7.33;4.53;;;10.90;29.10;;;;;;5014216;28;20211;-57
2022/03/11 09:26:09;;;;;;;5.30;4.23;;;11.30;28.10;;;;;;5014489;28;20251;-58
2022/03/11 09:28:34;;;;;;;4.70;4.23;;;11.80;28.00;;;;;;5013999;28;20691;-58
2022/03/11 09:31:08;;;;;;;5.10;4.37;;;12.20;26.70;;;;;;5013959;28;20204;-51
2022/03/11 09:33:40;;;;;;;4.77;4.20;;;12.60;27.10;;;;;;5014071;28;20166;-52
2022/03/11 09:36:07;;;;;;;4.87;4.37;;;13.20;25.60;;;;;;5013616;28;20278;-56
2022/03/11 09:38:36;;;;;;;4.90;4.17;;;13.50;26.30;;;;;;5013800;28;20182;-55
2022/03/11 09:41:03;;;;;;;4.00;3.60;;;14.10;24.80;;;;;;5013812;28;20219;-57
2022/03/11 09:43:30;;;;;;;7.53;4.30;;;14.70;25.60;;;;;;5013911;28;20251;-56
2022/03/11 09:45:56;;;;;;;5.93;4.17;;;16.00;24.30;;;;;;5012769;28;20176;-57
2022/03/11 09:48:22;;;;;;;4.40;4.00;;;16.60;23.00;;;;;;5013582;28;20219;-56
2022/03/11 09:50:48;;;;;;;4.43;3.80;;;16.80;22.40;;;;;;5013534;28;20286;-52
2022/03/11 09:53:14;;;;;;;4.03;3.63;;;17.50;22.20;;;;;;5013721;28;20169;-57
2022/03/11 09:55:40;;;;;;;4.40;4.00;;;18.20;22.40;;;;;;5013295;28;20183;-58
2022/03/11 09:58:06;;;;;;;4.88;3.95;;;19.70;21.50;;;;;;5013515;28;20272;-55
2022/03/11 10:00:31;;;;;;;5.03;4.43;;;21.30;20.90;;;;;;5013321;28;20304;-52
2022/03/11 10:02:57;;;;;;;4.20;3.80;;;23.60;20.40;;;;;;5013431;28;20212;-58
2022/03/11 10:05:23;;;;;;;3.83;3.53;;;25.70;18.90;;;;;;5013396;28;20173;-57
2022/03/11 10:08:00;;;;;;;4.30;3.78;;;26.60;17.90;;;;;;5013314;28;20665;-57
2022/03/11 10:10:26;;;;;;;4.07;3.67;;;27.80;17.10;;;;;;5013254;28;20299;-59
2022/03/11 10:12:53;;;;;;;4.18;3.78;;;28.80;16.70;;;;;;5013282;28;20287;-58
2022/03/11 10:15:28;;;;;;;3.63;3.33;;;30.20;15.90;;;;;;5013248;28;20173;-57
2022/03/11 10:17:54;;;;;;;5.10;3.50;;;31.40;15.30;;;;;;5013047;28;20208;-58
2022/03/11 10:20:20;;;;;;;3.88;3.58;;;31.00;15.10;;;;;;5013105;28;20188;-58
2022/03/11 10:22:47;;;;;;;3.88;3.50;;;30.70;14.30;;;;;;5013006;28;20212;-59
2022/03/11 10:25:25;;;;;;;3.75;3.28;;;29.70;14.70;;;;;;5013058;28;20215;-54
2022/03/11 10:28:01;;;;;;;4.03;3.50;;;29.70;15.00;;;;;;5012867;28;20196;-54
2022/03/11 10:30:28;;;;;;;5.28;3.35;;;30.10;14.50;;;;;;5013028;28;20259;-58
2022/03/11 10:32:55;;;;;;;3.90;3.53;;;30.50;14.20;;;;;;5013009;28;20183;-55
2022/03/11 10:35:30;;;;;;;4.93;3.10;;;30.60;14.40;;;;;;5012891;28;20229;-58
2022/03/11 10:38:02;;;;;;;3.53;3.22;;;30.90;13.90;;;;;;5012844;28;20648;-55
2022/03/11 10:40:29;;;;;;;4.55;3.30;;;29.40;14.30;;;;;;5012543;28;20177;-50
2022/03/11 10:43:19;;;;;;;4.22;3.28;;;29.20;14.20;;;;;;5012728;28;20203;-57
2022/03/11 10:45:51;;;;;;;3.40;3.10;;;27.80;15.00;;;;;;5012535;28;20161;-50
2022/03/11 10:48:18;;;;;;;6.53;3.40;;;28.60;13.90;;;;;;5012825;28;20172;-59
2022/03/11 10:50:44;;;;;;;3.30;3.10;;;28.90;13.60;;;;;;5012509;28;20179;-59
2022/03/11 10:53:11;;;;;;;3.50;3.20;;;27.90;13.90;;;;;;5119024;23;20641;-57
2022/03/11 10:55:40;;;;;;;6.28;3.53;;;26.40;14.70;;;;;;5071330;28;20699;-54
2022/03/11 10:58:07;;;;;;;4.57;3.45;;;27.50;15.10;;;;;;5072108;28;20199;-51
2022/03/11 11:00:38;;;;;;;4.22;3.70;;;28.00;14.20;;;;;;5072238;28;20684;-57
2022/03/11 11:03:06;;;;;;;3.72;3.20;;;26.60;13.50;;;;;;5071981;28;20228;-57
2022/03/11 11:05:32;;;;;;;4.40;3.33;;;26.20;14.30;;;;;;5068546;28;20197;-55
2022/03/11 11:07:59;;;;;;;4.65;3.10;;;25.00;14.70;;;;;;5071257;28;20287;-53
2022/03/11 11:10:27;;;;;;;3.45;3.15;;;24.40;14.80;;;;;;5070748;28;20179;-58
2022/03/11 11:12:54;;;;;;;3.40;3.10;;;24.70;14.70;;;;;;5070948;28;20203;-57
2022/03/11 11:15:20;;;;;;;5.38;2.90;;;24.80;15.30;;;;;;5071492;28;20259;-56
2022/03/11 11:17:49;;;;;;;3.47;2.80;;;25.70;14.70;;;;;;5071509;28;20179;-57
2022/03/11 11:20:59;;;;;;;4.95;2.80;;;24.90;13.30;;;;;;5071851;28;20209;-56
2022/03/11 11:23:25;;;;;;;3.63;2.90;;;24.90;14.30;;;;;;5048356;28;20199;-56
2022/03/11 11:25:51;;;;;;;2.80;2.60;;;26.40;14.40;;;;;;5049025;28;20179;-57
2022/03/11 11:28:20;;;;;;;3.40;2.90;;;25.10;14.10;;;;;;5049290;28;20176;-57
2022/03/11 11:30:47;;;;;;;5.15;3.10;;;25.00;14.20;;;;;;5049430;28;20202;-52
2022/03/11 11:33:14;;;;;;;3.00;2.70;;;24.60;14.50;;;;;;5049230;28;20191;-57
2022/03/11 11:35:43;;;;;;;4.65;2.53;;;25.10;13.70;;;;;;5049127;28;20180;-56
2022/03/11 11:38:26;;;;;;;2.72;2.53;;;24.00;13.60;;;;;;5048978;28;20707;-58
2022/03/11 11:40:53;;;;;;;2.95;2.75;;;24.30;14.30;;;;;;5029101;28;20194;-55
2022/03/11 11:43:26;;;;;;;2.92;2.35;;;24.60;14.30;;;;;;5029147;28;20258;-52
2022/03/11 11:46:01;;;;;;;3.72;2.50;;;25.20;14.00;;;;;;5029124;28;20719;-59
2022/03/11 11:48:33;;;;;;;3.67;2.80;;;26.10;13.80;;;;;;5029259;28;20194;-57
2022/03/11 11:51:03;;;;;;;3.55;2.53;;;25.40;13.10;;;;;;5029275;28;20596;-53
2022/03/11 11:54:08;;;;;;;3.50;2.17;;;25.50;13.30;;;;;;5018461;28;20783;-54
2022/03/11 11:56:43;;;;;;;2.80;2.40;;;25.10;13.40;;;;;;5051249;28;20179;-54
2022/03/11 11:59:24;;;;;;;2.80;2.60;;;24.10;13.30;;;;;;5051172;28;20202;-51
2022/03/11 12:01:55;;;;;;;3.28;2.67;;;24.00;13.10;;;;;;5051184;28;20207;-59
2022/03/11 12:04:32;;;;;;;2.78;2.20;;;23.70;13.50;;;;;;5050580;28;20664;-57
2022/03/11 12:07:00;;;;;;;2.20;1.98;;;24.00;14.10;;;;;;5050701;28;20543;-55
2022/03/11 12:12:07;;;;;;;2.38;2.10;;;27.30;12.00;;;;;;5055168;28;20636;-58
2022/03/11 12:15:00;;;;;;;2.42;2.22;;;28.80;11.70;;;;;;5072104;28;20179;-56
2022/03/11 12:18:01;;;;;;;2.38;1.95;;;29.50;10.80;;;;;;5074652;28;20186;-59
2022/03/11 12:20:30;;;;;;;2.30;2.10;;;29.70;10.40;;;;;;5075249;28;20162;-57
2022/03/11 12:23:07;;;;;;;2.75;1.98;;;30.60;10.50;;;;;;5074616;28;20217;-59
2022/03/11 12:25:37;;;;;;;2.90;1.98;;;30.20;10.60;;;;;;5073277;28;20166;-54
2022/03/11 12:28:12;;;;;;;3.85;2.10;;;29.90;10.60;;;;;;5074329;28;20247;-59
2022/03/11 12:31:05;;;;;;;3.42;1.95;;;30.00;10.40;;;;;;5075000;28;20169;-59
2022/03/11 12:33:37;;;;;;;4.80;2.15;;;30.00;10.50;;;;;;5073551;28;20332;-57
2022/03/11 12:36:06;;;;;;;2.40;2.20;;;29.30;10.60;;;;;;5074466;28;20175;-59
2022/03/11 12:38:33;;;;;;;2.15;1.98;;;28.20;10.80;;;;;;5074670;28;20171;-60
2022/03/11 12:41:07;;;;;;;1.92;1.83;;;28.00;11.10;;;;;;5074702;28;20171;-60
2022/03/11 12:43:33;;;;;;;1.90;1.80;;;27.40;10.70;;;;;;5074757;28;20232;-56
2022/03/11 12:45:59;;;;;;;2.80;1.90;;;26.10;10.50;;;;;;5074355;28;20166;-58
2022/03/11 12:48:37;;;;;;;2.08;1.98;;;25.80;10.90;;;;;;5074559;28;20170;-58
2022/03/11 12:51:05;;;;;;;3.00;1.88;;;25.20;11.10;;;;;;5074600;28;20175;-59
2022/03/11 12:53:30;;;;;;;2.45;2.00;;;25.50;11.30;;;;;;5074403;28;20757;-58
2022/03/11 12:55:57;;;;;;;2.15;1.77;;;25.80;10.90;;;;;;5074218;28;20217;-59